createdAt,value
2022-10-07T00:00:16.874Z,0.00
2022-10-07T00:01:16.943Z,0.00
2022-10-07T00:02:16.880Z,0.00
2022-10-07T00:03:16.827Z,0.00
2022-10-07T00:04:16.824Z,0.00
2022-10-07T00:05:16.805Z,0.00
2022-10-07T00:06:16.813Z,0.00
2022-10-07T00:07:16.779Z,0.00
2022-10-07T00:08:16.775Z,0.00
2022-10-07T00:09:16.767Z,0.00
2022-10-07T00:10:16.763Z,0.00
2022-10-07T00:11:16.763Z,0.00
2022-10-07T00:12:23.318Z,0.00
2022-10-07T00:13:16.719Z,0.00
2022-10-07T00:14:16.724Z,0.00
2022-10-07T00:15:16.701Z,0.00
2022-10-07T00:16:26.507Z,0.00
2022-10-07T00:17:16.717Z,0.00
2022-10-07T00:18:16.682Z,0.00
2022-10-07T00:19:16.675Z,0.00
2022-10-07T00:20:16.647Z,0.00
2022-10-07T00:21:16.654Z,0.00
2022-10-07T00:22:16.627Z,0.00
2022-10-07T00:23:16.601Z,0.00
2022-10-07T00:24:16.600Z,0.00
2022-10-07T00:25:16.591Z,0.00
2022-10-07T00:26:16.595Z,0.00
2022-10-07T00:27:16.563Z,0.00
2022-10-07T00:28:16.701Z,0.00
2022-10-07T00:29:16.547Z,0.00
2022-10-07T00:30:16.547Z,0.00
2022-10-07T00:31:16.641Z,0.00
2022-10-07T00:32:16.509Z,0.00
2022-10-07T00:33:16.544Z,0.00
2022-10-07T00:34:16.503Z,0.00
2022-10-07T00:35:16.471Z,0.00
2022-10-07T00:36:19.472Z,0.00
2022-10-07T00:37:16.439Z,0.00
2022-10-07T00:38:16.461Z,0.00
2022-10-07T00:39:16.430Z,0.00
2022-10-07T00:40:16.398Z,0.00
2022-10-07T00:41:16.422Z,0.00
2022-10-07T00:42:16.385Z,0.00
2022-10-07T00:43:16.364Z,0.00
2022-10-07T00:44:16.354Z,0.00
2022-10-07T00:45:16.349Z,0.00
2022-10-07T00:46:16.438Z,0.00
2022-10-07T00:47:16.318Z,0.00
2022-10-07T00:48:16.317Z,0.00
2022-10-07T00:49:16.309Z,0.00
2022-10-07T00:50:16.287Z,0.00
2022-10-07T00:51:16.326Z,0.00
2022-10-07T00:52:16.271Z,0.00
2022-10-07T00:53:16.282Z,0.00
2022-10-07T00:54:16.252Z,0.00
2022-10-07T00:55:16.251Z,0.00
2022-10-07T00:56:16.253Z,0.00
2022-10-07T00:57:16.214Z,0.00
2022-10-07T00:58:16.202Z,0.00
2022-10-07T00:59:16.222Z,0.00
2022-10-07T01:00:16.187Z,0.00
2022-10-07T01:01:16.273Z,0.00
2022-10-07T01:02:16.201Z,0.00
2022-10-07T01:03:16.157Z,0.00
2022-10-07T01:04:16.142Z,0.00
2022-10-07T01:05:16.130Z,0.00
2022-10-07T01:06:16.164Z,0.00
2022-10-07T01:07:16.110Z,0.00
2022-10-07T01:08:16.102Z,0.00
2022-10-07T01:09:16.103Z,0.00
2022-10-07T01:10:16.063Z,0.00
2022-10-07T01:11:16.083Z,0.00
2022-10-07T01:12:16.061Z,0.00
2022-10-07T01:13:16.056Z,0.00
2022-10-07T01:14:16.054Z,0.00
2022-10-07T01:15:16.039Z,0.00
2022-10-07T01:16:16.070Z,0.00
2022-10-07T01:17:15.990Z,0.00
2022-10-07T01:18:15.982Z,0.00
2022-10-07T01:19:15.983Z,0.00
2022-10-07T01:20:15.967Z,0.00
2022-10-07T01:21:15.966Z,0.00
2022-10-07T01:22:15.960Z,0.00
2022-10-07T01:23:15.927Z,0.00
2022-10-07T01:24:15.933Z,0.00
2022-10-07T01:25:15.929Z,0.00
2022-10-07T01:26:15.888Z,0.00
2022-10-07T01:27:15.903Z,0.00
2022-10-07T01:28:15.919Z,0.00
2022-10-07T01:29:15.873Z,0.00
2022-10-07T01:30:15.851Z,0.00
2022-10-07T01:31:15.871Z,0.00
2022-10-07T01:32:15.853Z,0.00
2022-10-07T01:33:15.841Z,0.00
2022-10-07T01:34:15.826Z,0.00
2022-10-07T01:35:15.798Z,0.00
2022-10-07T01:36:15.782Z,0.00
2022-10-07T01:37:15.820Z,0.00
2022-10-07T01:38:15.761Z,0.00
2022-10-07T01:39:15.800Z,0.00
2022-10-07T01:40:15.749Z,0.00
2022-10-07T01:41:15.789Z,0.00
2022-10-07T01:42:15.769Z,0.00
2022-10-07T01:43:15.725Z,0.00
2022-10-07T01:44:15.741Z,0.00
2022-10-07T01:45:15.700Z,0.00
2022-10-07T01:46:15.740Z,0.00
2022-10-07T01:47:15.689Z,0.00
2022-10-07T01:48:15.672Z,0.00
2022-10-07T01:49:15.656Z,0.00
2022-10-07T01:50:15.634Z,0.00
2022-10-07T01:51:15.645Z,0.00
2022-10-07T01:52:15.675Z,0.00
2022-10-07T01:53:15.609Z,0.00
2022-10-07T01:54:15.584Z,0.00
2022-10-07T01:55:15.601Z,0.00
2022-10-07T01:56:15.611Z,0.00
2022-10-07T01:57:15.601Z,0.00
2022-10-07T01:58:15.552Z,0.00
2022-10-07T01:59:15.567Z,0.00
2022-10-07T02:00:15.549Z,0.00
2022-10-07T02:01:15.615Z,0.00
2022-10-07T02:02:15.573Z,0.00
2022-10-07T02:03:15.553Z,0.00
2022-10-07T02:04:15.485Z,0.00
2022-10-07T02:05:15.469Z,0.00
2022-10-07T02:06:15.475Z,0.00
2022-10-07T02:07:15.485Z,0.00
2022-10-07T02:08:15.445Z,0.00
2022-10-07T02:09:15.434Z,0.00
2022-10-07T02:10:15.424Z,0.00
2022-10-07T02:11:15.409Z,0.00
2022-10-07T02:12:15.427Z,0.00
2022-10-07T02:13:15.385Z,0.00
2022-10-07T02:14:15.375Z,0.00
2022-10-07T02:15:15.383Z,0.00
2022-10-07T02:16:15.459Z,0.00
2022-10-07T02:17:15.400Z,0.00
2022-10-07T02:18:15.329Z,0.00
2022-10-07T02:19:15.317Z,0.00
2022-10-07T02:20:15.295Z,0.00
2022-10-07T02:21:15.315Z,0.00
2022-10-07T02:22:15.318Z,0.00
2022-10-07T02:23:15.272Z,0.00
2022-10-07T02:24:15.265Z,0.00
2022-10-07T02:25:15.290Z,0.00
2022-10-07T02:26:15.266Z,0.00
2022-10-07T02:27:15.274Z,0.00
2022-10-07T02:28:15.260Z,0.00
2022-10-07T02:29:15.233Z,0.00
2022-10-07T02:30:15.197Z,0.00
2022-10-07T02:31:15.223Z,0.00
2022-10-07T02:32:15.198Z,0.00
2022-10-07T02:33:15.187Z,0.00
2022-10-07T02:34:19.524Z,0.00
2022-10-07T02:35:15.160Z,0.00
2022-10-07T02:36:15.132Z,0.00
2022-10-07T02:37:15.140Z,0.00
2022-10-07T02:38:15.125Z,0.00
2022-10-07T02:39:15.104Z,0.00
2022-10-07T02:40:15.101Z,0.00
2022-10-07T02:41:15.081Z,0.00
2022-10-07T02:42:15.109Z,0.00
2022-10-07T02:43:15.066Z,0.00
2022-10-07T02:44:15.040Z,0.00
2022-10-07T02:45:15.034Z,0.00
2022-10-07T02:46:15.073Z,0.00
2022-10-07T02:47:15.045Z,0.00
2022-10-07T02:48:15.030Z,0.00
2022-10-07T02:49:14.990Z,0.00
2022-10-07T02:50:14.969Z,0.00
2022-10-07T02:51:18.649Z,0.00
2022-10-07T02:52:15.547Z,0.00
2022-10-07T02:53:14.944Z,0.00
2022-10-07T02:54:14.957Z,0.00
2022-10-07T02:55:14.954Z,0.00
2022-10-07T02:56:14.902Z,0.00
2022-10-07T02:57:14.950Z,0.00
2022-10-07T02:58:14.897Z,0.00
2022-10-07T02:59:14.897Z,0.00
2022-10-07T03:00:14.881Z,0.00
2022-10-07T03:01:14.924Z,0.00
2022-10-07T03:02:14.861Z,0.00
2022-10-07T03:03:14.854Z,0.00
2022-10-07T03:04:14.844Z,0.00
2022-10-07T03:05:14.826Z,0.00
2022-10-07T03:06:14.798Z,0.00
2022-10-07T03:07:14.824Z,0.00
2022-10-07T03:08:14.768Z,0.00
2022-10-07T03:09:14.778Z,0.00
2022-10-07T03:10:14.755Z,0.00
2022-10-07T03:11:14.769Z,0.00
2022-10-07T03:12:14.770Z,0.00
2022-10-07T03:13:14.749Z,0.00
2022-10-07T03:14:14.732Z,0.00
2022-10-07T03:15:14.742Z,0.00
2022-10-07T03:16:14.736Z,0.00
2022-10-07T03:17:14.699Z,0.00
2022-10-07T03:18:14.705Z,0.00
2022-10-07T03:19:14.679Z,0.00
2022-10-07T03:20:14.661Z,0.00
2022-10-07T03:21:14.637Z,0.00
2022-10-07T03:22:14.675Z,0.00
2022-10-07T03:23:14.625Z,0.00
2022-10-07T03:24:14.628Z,0.00
2022-10-07T03:25:14.619Z,0.00
2022-10-07T03:26:14.570Z,0.00
2022-10-07T03:27:14.592Z,0.00
2022-10-07T03:28:14.634Z,0.00
2022-10-07T03:29:14.548Z,0.00
2022-10-07T03:30:14.531Z,0.00
2022-10-07T03:31:14.593Z,0.00
2022-10-07T03:32:14.519Z,0.00
2022-10-07T03:33:14.505Z,0.00
2022-10-07T03:34:14.495Z,0.00
2022-10-07T03:35:15.863Z,0.00
2022-10-07T03:36:14.554Z,0.00
2022-10-07T03:37:14.507Z,0.00
2022-10-07T03:38:14.447Z,0.00
2022-10-07T03:39:14.447Z,0.00
2022-10-07T03:40:14.451Z,0.00
2022-10-07T03:41:14.442Z,0.00
2022-10-07T03:42:14.420Z,0.00
2022-10-07T03:43:14.397Z,0.00
2022-10-07T03:44:14.406Z,0.00
2022-10-07T03:45:14.382Z,0.00
2022-10-07T03:46:14.458Z,0.00
2022-10-07T03:47:14.394Z,0.00
2022-10-07T03:48:14.371Z,0.00
2022-10-07T03:49:14.360Z,0.00
2022-10-07T03:50:14.312Z,0.00
2022-10-07T03:51:14.317Z,0.00
2022-10-07T03:52:14.331Z,0.00
2022-10-07T03:53:14.302Z,0.00
2022-10-07T03:54:14.304Z,0.00
2022-10-07T03:55:14.263Z,0.00
2022-10-07T03:56:14.248Z,0.00
2022-10-07T03:57:14.308Z,0.00
2022-10-07T03:58:14.271Z,0.00
2022-10-07T03:59:14.228Z,0.00
2022-10-07T04:00:14.217Z,0.00
2022-10-07T04:01:14.225Z,0.00
2022-10-07T04:02:14.289Z,0.00
2022-10-07T04:03:14.231Z,0.00
2022-10-07T04:04:14.179Z,0.00
2022-10-07T04:05:14.176Z,0.00
2022-10-07T04:06:14.148Z,0.00
2022-10-07T04:07:14.155Z,0.00
2022-10-07T04:08:14.151Z,0.00
2022-10-07T04:09:14.215Z,0.00
2022-10-07T04:10:14.104Z,0.00
2022-10-07T04:11:14.088Z,0.00
2022-10-07T04:12:14.107Z,0.00
2022-10-07T04:13:14.083Z,0.00
2022-10-07T04:14:14.052Z,0.00
2022-10-07T04:15:14.055Z,0.00
2022-10-07T04:16:14.059Z,0.00
2022-10-07T04:17:14.036Z,0.00
2022-10-07T04:18:14.058Z,0.00
2022-10-07T04:19:14.043Z,0.00
2022-10-07T04:20:14.001Z,0.00
2022-10-07T04:21:13.976Z,0.00
2022-10-07T04:22:13.970Z,0.00
2022-10-07T04:23:14.000Z,0.00
2022-10-07T04:24:13.958Z,0.00
2022-10-07T04:25:13.950Z,0.00
2022-10-07T04:26:13.943Z,0.00
2022-10-07T04:27:28.299Z,0.00
2022-10-07T04:28:13.948Z,0.00
2022-10-07T04:29:13.910Z,0.00
2022-10-07T04:30:13.886Z,0.00
2022-10-07T04:31:13.885Z,0.00
2022-10-07T04:32:13.854Z,0.00
2022-10-07T04:33:13.883Z,0.00
2022-10-07T04:34:13.829Z,0.00
2022-10-07T04:35:13.830Z,0.00
2022-10-07T04:36:13.812Z,0.00
2022-10-07T04:37:13.808Z,0.00
2022-10-07T04:38:13.811Z,0.00
2022-10-07T04:39:13.785Z,0.00
2022-10-07T04:40:13.776Z,0.00
2022-10-07T04:41:13.774Z,0.00
2022-10-07T04:42:13.751Z,0.00
2022-10-07T04:43:13.755Z,0.00
2022-10-07T04:44:13.723Z,0.00
2022-10-07T04:45:13.714Z,0.00
2022-10-07T04:46:13.725Z,0.00
2022-10-07T04:47:13.772Z,0.00
2022-10-07T04:48:13.701Z,0.00
2022-10-07T04:49:13.684Z,0.00
2022-10-07T04:50:13.663Z,0.00
2022-10-07T04:51:13.652Z,0.00
2022-10-07T04:52:13.647Z,0.00
2022-10-07T04:53:13.677Z,0.00
2022-10-07T04:54:13.623Z,0.00
2022-10-07T04:55:13.632Z,0.00
2022-10-07T04:56:13.591Z,0.00
2022-10-07T04:57:13.582Z,0.00
2022-10-07T04:58:13.588Z,0.00
2022-10-07T04:59:13.581Z,0.00
2022-10-07T05:00:13.560Z,0.00
2022-10-07T05:01:13.744Z,0.00
2022-10-07T05:02:13.645Z,0.00
2022-10-07T05:03:13.550Z,4.00
2022-10-07T05:04:13.534Z,0.00
2022-10-07T05:05:13.502Z,0.00
2022-10-07T05:06:13.486Z,4.00
2022-10-07T05:07:13.499Z,0.00
2022-10-07T05:08:13.488Z,4.00
2022-10-07T05:09:13.461Z,4.00
2022-10-07T05:10:13.447Z,8.00
2022-10-07T05:11:13.446Z,8.00
2022-10-07T05:12:13.528Z,8.00
2022-10-07T05:13:13.445Z,12.00
2022-10-07T05:14:13.405Z,8.00
2022-10-07T05:15:13.391Z,12.00
2022-10-07T05:16:13.434Z,16.00
2022-10-07T05:17:13.371Z,16.00
2022-10-07T05:18:13.412Z,20.00
2022-10-07T05:19:13.348Z,24.00
2022-10-07T05:20:13.342Z,28.00
2022-10-07T05:21:13.322Z,28.00
2022-10-07T05:22:13.308Z,36.00
2022-10-07T05:23:13.323Z,40.00
2022-10-07T05:24:13.294Z,48.00
2022-10-07T05:25:13.282Z,48.00
2022-10-07T05:26:13.265Z,56.00
2022-10-07T05:27:13.257Z,64.00
2022-10-07T05:28:13.350Z,76.00
2022-10-07T05:29:13.241Z,84.00
2022-10-07T05:30:13.230Z,92.00
2022-10-07T05:31:13.281Z,100.00
2022-10-07T05:32:13.197Z,112.00
2022-10-07T05:33:13.204Z,124.00
2022-10-07T05:34:13.191Z,132.00
2022-10-07T05:35:13.159Z,148.00
2022-10-07T05:36:13.164Z,160.00
2022-10-07T05:37:13.152Z,172.00
2022-10-07T05:38:13.176Z,184.00
2022-10-07T05:39:13.138Z,200.00
2022-10-07T05:40:13.137Z,212.00
2022-10-07T05:41:13.107Z,228.00
2022-10-07T05:42:13.089Z,240.00
2022-10-07T05:43:13.095Z,260.00
2022-10-07T05:44:13.114Z,272.00
2022-10-07T05:45:13.067Z,292.00
2022-10-07T05:46:13.090Z,304.00
2022-10-07T05:47:13.107Z,324.00
2022-10-07T05:48:13.044Z,340.00
2022-10-07T05:49:13.080Z,356.00
2022-10-07T05:50:13.010Z,372.00
2022-10-07T05:51:12.992Z,388.00
2022-10-07T05:52:12.992Z,404.00
2022-10-07T05:53:12.993Z,420.00
2022-10-07T05:54:12.973Z,440.00
2022-10-07T05:55:12.960Z,456.00
2022-10-07T05:56:12.980Z,472.00
2022-10-07T05:57:12.956Z,488.00
2022-10-07T05:58:12.950Z,500.00
2022-10-07T05:59:12.915Z,520.00
2022-10-07T06:00:12.888Z,532.00
2022-10-07T06:01:14.211Z,548.00
2022-10-07T06:02:13.011Z,564.00
2022-10-07T06:03:12.922Z,576.00
2022-10-07T06:04:12.861Z,592.00
2022-10-07T06:05:12.846Z,604.00
2022-10-07T06:06:12.839Z,620.00
2022-10-07T06:07:14.943Z,636.00
2022-10-07T06:08:12.824Z,648.00
2022-10-07T06:09:12.813Z,660.00
2022-10-07T06:10:12.780Z,672.00
2022-10-07T06:11:12.767Z,688.00
2022-10-07T06:13:29.304Z,716.00
2022-10-07T06:14:30.283Z,728.00
2022-10-07T06:15:30.267Z,736.00
2022-10-07T06:16:30.347Z,748.00
2022-10-07T06:17:30.261Z,760.00
2022-10-07T06:18:30.260Z,772.00
2022-10-07T06:19:30.244Z,784.00
2022-10-07T06:20:30.238Z,792.00
2022-10-07T06:21:30.207Z,800.00
2022-10-07T06:22:30.218Z,812.00
2022-10-07T06:23:30.206Z,820.00
2022-10-07T06:24:30.170Z,832.00
2022-10-07T06:25:30.176Z,840.00
2022-10-07T06:26:30.145Z,852.00
2022-10-07T06:27:30.148Z,860.00
2022-10-07T06:28:30.200Z,868.00
2022-10-07T06:29:30.123Z,876.00
2022-10-07T06:30:30.183Z,884.00
2022-10-07T06:31:30.101Z,892.00
2022-10-07T06:32:30.087Z,900.00
2022-10-07T06:33:30.101Z,908.00
2022-10-07T06:34:30.069Z,916.00
2022-10-07T06:35:30.090Z,924.00
2022-10-07T06:36:30.042Z,928.00
2022-10-07T06:37:30.094Z,936.00
2022-10-07T06:38:30.044Z,944.00
2022-10-07T06:39:30.029Z,948.00
2022-10-07T06:40:30.005Z,956.00
2022-10-07T06:41:29.994Z,964.00
2022-10-07T06:42:29.969Z,964.00
2022-10-07T06:43:29.983Z,972.00
2022-10-07T06:44:29.949Z,976.00
2022-10-07T06:45:29.938Z,984.00
2022-10-07T06:46:30.019Z,992.00
2022-10-07T06:47:29.945Z,996.00
2022-10-07T06:48:29.952Z,1004.00
2022-10-07T06:49:29.956Z,1008.00
2022-10-07T06:50:29.884Z,1012.00
2022-10-07T06:51:29.892Z,1020.00
2022-10-07T06:52:29.875Z,1024.00
2022-10-07T06:53:29.911Z,1028.00
2022-10-07T06:54:29.847Z,1032.00
2022-10-07T06:55:29.838Z,1036.00
2022-10-07T06:56:29.928Z,1040.00
2022-10-07T06:57:46.331Z,1048.00
2022-10-07T06:58:29.838Z,1052.00
2022-10-07T06:59:29.780Z,1056.00
2022-10-07T07:00:29.793Z,1064.00
2022-10-07T07:01:29.872Z,1068.00
2022-10-07T07:02:29.941Z,1072.00
2022-10-07T07:03:29.765Z,1076.00
2022-10-07T07:04:29.736Z,1076.00
2022-10-07T07:05:29.719Z,1080.00
2022-10-07T07:06:29.712Z,1084.00
2022-10-07T07:07:29.693Z,1084.00
2022-10-07T07:08:29.714Z,1092.00
2022-10-07T07:09:29.682Z,1092.00
2022-10-07T07:10:29.665Z,1092.00
2022-10-07T07:11:29.673Z,1100.00
2022-10-07T07:12:29.631Z,1104.00
2022-10-07T07:13:29.655Z,1108.00
2022-10-07T07:14:29.621Z,1112.00
2022-10-07T07:15:29.612Z,1116.00
2022-10-07T07:16:29.681Z,1120.00
2022-10-07T07:17:29.599Z,1120.00
2022-10-07T07:18:29.602Z,1124.00
2022-10-07T07:19:29.553Z,1128.00
2022-10-07T07:20:29.546Z,1132.00
2022-10-07T07:21:29.546Z,1136.00
2022-10-07T07:22:29.600Z,1136.00
2022-10-07T07:23:29.536Z,1140.00
2022-10-07T07:24:29.524Z,1144.00
2022-10-07T07:25:29.499Z,1144.00
2022-10-07T07:26:29.484Z,1148.00
2022-10-07T07:27:29.479Z,1152.00
2022-10-07T07:28:29.546Z,1156.00
2022-10-07T07:29:29.479Z,1164.00
2022-10-07T07:30:29.510Z,1172.00
2022-10-07T07:31:29.447Z,1176.00
2022-10-07T07:32:29.414Z,1180.00
2022-10-07T07:33:29.428Z,1184.00
2022-10-07T07:34:29.414Z,1192.00
2022-10-07T07:35:29.479Z,1200.00
2022-10-07T07:36:29.378Z,1212.00
2022-10-07T07:37:29.376Z,1224.00
2022-10-07T07:38:29.384Z,1232.00
2022-10-07T07:39:29.347Z,1244.00
2022-10-07T07:40:29.334Z,1244.00
2022-10-07T07:41:29.323Z,1252.00
2022-10-07T07:42:29.306Z,1272.00
2022-10-07T07:43:29.322Z,1380.00
2022-10-07T07:44:33.971Z,1696.00
2022-10-07T07:45:29.288Z,1864.00
2022-10-07T07:46:29.262Z,1744.00
2022-10-07T07:47:29.257Z,1764.00
2022-10-07T07:48:29.252Z,1892.00
2022-10-07T07:49:29.231Z,1896.00
2022-10-07T07:50:29.219Z,1692.00
2022-10-07T07:51:29.225Z,1508.00
2022-10-07T07:52:29.205Z,1460.00
2022-10-07T07:53:29.214Z,1436.00
2022-10-07T07:54:29.178Z,1420.00
2022-10-07T07:55:29.155Z,1336.00
2022-10-07T07:56:29.151Z,1308.00
2022-10-07T07:57:29.149Z,1240.00
2022-10-07T07:58:29.142Z,1212.00
2022-10-07T07:59:29.122Z,1220.00
2022-10-07T08:00:29.118Z,1236.00
2022-10-07T08:01:29.119Z,1360.00
2022-10-07T08:02:29.146Z,1364.00
2022-10-07T08:03:29.091Z,1372.00
2022-10-07T08:04:29.067Z,1384.00
2022-10-07T08:05:29.048Z,1400.00
2022-10-07T08:06:29.036Z,1416.00
2022-10-07T08:07:29.040Z,1440.00
2022-10-07T08:08:29.030Z,1456.00
2022-10-07T08:09:29.001Z,1480.00
2022-10-07T08:10:28.998Z,1488.00
2022-10-07T08:11:28.987Z,1500.00
2022-10-07T08:12:28.995Z,1524.00
2022-10-07T08:13:28.989Z,1544.00
2022-10-07T08:14:28.955Z,1508.00
2022-10-07T08:15:28.988Z,1500.00
2022-10-07T08:16:28.930Z,1536.00
2022-10-07T08:17:28.917Z,1504.00
2022-10-07T08:18:28.906Z,1724.00
2022-10-07T08:19:28.891Z,2036.00
2022-10-07T08:20:28.879Z,2188.00
2022-10-07T08:21:28.877Z,2020.00
2022-10-07T08:22:28.862Z,2112.00
2022-10-07T08:23:28.879Z,2164.00
2022-10-07T08:24:28.837Z,2116.00
2022-10-07T08:25:28.837Z,2072.00
2022-10-07T08:26:28.821Z,2000.00
2022-10-07T08:27:28.819Z,2004.00
2022-10-07T08:28:28.845Z,1992.00
2022-10-07T08:29:28.792Z,1964.00
2022-10-07T08:30:28.779Z,1872.00
2022-10-07T08:31:28.798Z,1816.00
2022-10-07T08:32:28.752Z,1800.00
2022-10-07T08:33:28.758Z,1788.00
2022-10-07T08:34:28.735Z,1756.00
2022-10-07T08:35:28.728Z,1728.00
2022-10-07T08:36:28.710Z,1696.00
2022-10-07T08:37:28.702Z,1676.00
2022-10-07T08:38:28.696Z,1676.00
2022-10-07T08:39:28.688Z,1644.00
2022-10-07T08:40:28.664Z,1620.00
2022-10-07T08:41:28.660Z,1616.00
2022-10-07T08:42:28.651Z,1604.00
2022-10-07T08:43:28.670Z,1592.00
2022-10-07T08:44:28.615Z,1584.00
2022-10-07T08:45:28.618Z,1596.00
2022-10-07T08:46:28.691Z,1612.00
2022-10-07T08:47:28.588Z,1648.00
2022-10-07T08:48:28.596Z,1648.00
2022-10-07T08:49:28.572Z,1652.00
2022-10-07T08:50:28.551Z,1624.00
2022-10-07T08:51:28.556Z,1596.00
2022-10-07T08:52:28.535Z,1576.00
2022-10-07T08:53:28.545Z,1572.00
2022-10-07T08:54:28.519Z,1568.00
2022-10-07T08:55:28.507Z,1564.00
2022-10-07T08:56:28.502Z,1556.00
2022-10-07T08:57:28.484Z,1556.00
2022-10-07T08:58:28.480Z,1560.00
2022-10-07T08:59:28.456Z,1568.00
2022-10-07T09:00:28.481Z,1580.00
2022-10-07T09:01:28.463Z,1584.00
2022-10-07T09:02:28.493Z,1592.00
2022-10-07T09:03:28.433Z,1600.00
2022-10-07T09:04:28.404Z,1616.00
2022-10-07T09:05:28.392Z,1644.00
2022-10-07T09:06:28.379Z,1668.00
2022-10-07T09:07:28.376Z,1696.00
2022-10-07T09:08:28.372Z,1736.00
2022-10-07T09:09:28.348Z,1792.00
2022-10-07T09:10:28.332Z,1840.00
2022-10-07T09:11:28.319Z,1872.00
2022-10-07T09:12:28.306Z,1920.00
2022-10-07T09:13:28.320Z,1984.00
2022-10-07T09:14:28.291Z,2016.00
2022-10-07T09:15:28.315Z,2048.00
2022-10-07T09:16:28.274Z,2068.00
2022-10-07T09:17:32.840Z,2080.00
2022-10-07T09:18:28.276Z,2072.00
2022-10-07T09:19:28.236Z,2060.00
2022-10-07T09:20:28.211Z,2032.00
2022-10-07T09:21:28.208Z,2012.00
2022-10-07T09:22:28.193Z,2020.00
2022-10-07T09:23:28.179Z,2028.00
2022-10-07T09:24:28.197Z,2064.00
2022-10-07T09:25:28.160Z,2060.00
2022-10-07T09:26:28.158Z,2064.00
2022-10-07T09:27:28.142Z,2072.00
2022-10-07T09:28:28.199Z,2092.00
2022-10-07T09:29:28.139Z,2108.00
2022-10-07T09:30:28.110Z,2116.00
2022-10-07T09:31:28.118Z,2136.00
2022-10-07T09:32:28.081Z,2140.00
2022-10-07T09:33:28.097Z,2156.00
2022-10-07T09:34:28.077Z,2152.00
2022-10-07T09:35:28.059Z,2124.00
2022-10-07T09:36:28.042Z,2024.00
2022-10-07T09:37:28.030Z,2020.00
2022-10-07T09:38:28.010Z,1988.00
2022-10-07T09:39:28.024Z,1972.00
2022-10-07T09:40:27.991Z,1952.00
2022-10-07T09:41:31.140Z,1948.00
2022-10-07T09:42:27.981Z,1916.00
2022-10-07T09:43:27.964Z,1924.00
2022-10-07T09:44:27.965Z,1888.00
2022-10-07T09:45:27.944Z,1876.00
2022-10-07T09:46:27.987Z,1884.00
2022-10-07T09:47:27.913Z,1892.00
2022-10-07T09:48:27.908Z,1880.00
2022-10-07T09:49:27.913Z,1884.00
2022-10-07T09:50:27.881Z,1888.00
2022-10-07T09:51:27.880Z,1904.00
2022-10-07T09:52:27.862Z,1888.00
2022-10-07T09:53:27.877Z,1884.00
2022-10-07T09:54:27.856Z,1900.00
2022-10-07T09:55:27.827Z,1916.00
2022-10-07T09:56:27.812Z,1944.00
2022-10-07T09:57:27.810Z,1964.00
2022-10-07T09:58:27.798Z,2024.00
2022-10-07T09:59:27.798Z,2068.00
2022-10-07T10:00:27.784Z,2088.00
2022-10-07T10:01:27.773Z,2152.00
2022-10-07T10:02:27.863Z,2192.00
2022-10-07T10:03:27.800Z,2272.00
2022-10-07T10:04:27.748Z,2328.00
2022-10-07T10:05:27.722Z,2456.00
2022-10-07T10:06:27.711Z,2532.00
2022-10-07T10:07:27.706Z,2700.00
2022-10-07T10:08:27.677Z,3268.00
2022-10-07T10:09:27.694Z,3644.00
2022-10-07T10:10:27.679Z,3248.00
2022-10-07T10:11:27.655Z,3036.00
2022-10-07T10:12:27.637Z,2688.00
2022-10-07T10:13:27.631Z,2044.00
2022-10-07T10:14:27.632Z,1836.00
2022-10-07T10:15:27.606Z,2112.00
2022-10-07T10:16:27.690Z,2212.00
2022-10-07T10:17:27.591Z,2704.00
2022-10-07T10:18:27.571Z,1760.00
2022-10-07T10:19:27.588Z,2596.00
2022-10-07T10:20:27.551Z,2588.00
2022-10-07T10:21:27.548Z,2616.00
2022-10-07T10:22:27.523Z,1680.00
2022-10-07T10:23:27.517Z,2576.00
2022-10-07T10:24:27.526Z,2852.00
2022-10-07T10:25:27.503Z,2760.00
2022-10-07T10:26:33.320Z,2680.00
2022-10-07T10:27:27.476Z,2688.00
2022-10-07T10:28:27.496Z,2780.00
2022-10-07T10:29:27.490Z,2680.00
2022-10-07T10:30:27.437Z,2656.00
2022-10-07T10:31:27.485Z,2620.00
2022-10-07T10:32:27.411Z,2636.00
2022-10-07T10:33:27.434Z,2532.00
2022-10-07T10:34:27.409Z,2532.00
2022-10-07T10:35:27.386Z,2404.00
2022-10-07T10:36:27.373Z,2436.00
2022-10-07T10:37:27.361Z,2444.00
2022-10-07T10:38:27.344Z,2476.00
2022-10-07T10:39:27.355Z,2432.00
2022-10-07T10:40:27.319Z,2452.00
2022-10-07T10:41:27.331Z,2524.00
2022-10-07T10:42:27.313Z,2612.00
2022-10-07T10:43:27.294Z,2616.00
2022-10-07T10:44:27.296Z,2500.00
2022-10-07T10:45:27.278Z,2400.00
2022-10-07T10:46:27.385Z,2464.00
2022-10-07T10:47:27.249Z,2500.00
2022-10-07T10:48:27.232Z,2436.00
2022-10-07T10:49:27.243Z,2480.00
2022-10-07T10:50:27.211Z,2488.00
2022-10-07T10:51:27.199Z,2396.00
2022-10-07T10:52:27.198Z,2364.00
2022-10-07T10:53:27.183Z,2360.00
2022-10-07T10:54:27.187Z,2368.00
2022-10-07T10:55:27.158Z,2360.00
2022-10-07T10:56:27.142Z,2312.00
2022-10-07T10:57:27.145Z,2328.00
2022-10-07T10:58:27.119Z,2376.00
2022-10-07T10:59:27.125Z,2320.00
2022-10-07T11:00:27.096Z,2424.00
2022-10-07T11:01:27.161Z,2556.00
2022-10-07T11:02:27.130Z,2624.00
2022-10-07T11:03:27.068Z,2808.00
2022-10-07T11:04:27.079Z,2940.00
2022-10-07T11:05:27.047Z,2868.00
2022-10-07T11:06:27.055Z,2516.00
2022-10-07T11:07:27.018Z,2596.00
2022-10-07T11:08:27.640Z,2720.00
2022-10-07T11:09:30.526Z,2664.00
2022-10-07T11:10:27.005Z,2828.00
2022-10-07T11:11:26.987Z,3080.00
2022-10-07T11:12:26.968Z,3112.00
2022-10-07T11:13:26.951Z,3008.00
2022-10-07T11:14:26.949Z,3292.00
2022-10-07T11:15:26.936Z,3168.00
2022-10-07T11:16:27.497Z,3152.00
2022-10-07T11:17:26.904Z,2888.00
2022-10-07T11:18:26.904Z,2804.00
2022-10-07T11:19:26.925Z,2928.00
2022-10-07T11:20:26.876Z,3044.00
2022-10-07T11:21:26.863Z,2216.00
2022-10-07T11:22:26.863Z,2076.00
2022-10-07T11:23:26.844Z,2824.00
2022-10-07T11:24:26.850Z,3048.00
2022-10-07T11:25:26.827Z,2632.00
2022-10-07T11:26:29.978Z,3480.00
2022-10-07T11:27:26.814Z,3320.00
2022-10-07T11:28:26.878Z,3304.00
2022-10-07T11:29:26.792Z,3280.00
2022-10-07T11:30:26.759Z,3300.00
2022-10-07T11:31:26.814Z,2964.00
2022-10-07T11:32:26.744Z,3848.00
2022-10-07T11:33:26.721Z,3892.00
2022-10-07T11:34:26.733Z,3660.00
2022-10-07T11:35:26.707Z,3336.00
2022-10-07T11:36:26.712Z,3540.00
2022-10-07T11:37:26.688Z,3668.00
2022-10-07T11:38:26.676Z,3388.00
2022-10-07T11:39:26.682Z,3040.00
2022-10-07T11:40:29.004Z,2820.00
2022-10-07T11:41:26.646Z,2704.00
2022-10-07T11:42:26.633Z,2808.00
2022-10-07T11:43:26.631Z,3020.00
2022-10-07T11:44:26.634Z,3316.00
2022-10-07T11:45:26.595Z,3260.00
2022-10-07T11:46:26.735Z,3616.00
2022-10-07T11:47:26.578Z,3172.00
2022-10-07T11:48:26.575Z,3444.00
2022-10-07T11:49:26.586Z,3228.00
2022-10-07T11:50:26.546Z,3160.00
2022-10-07T11:51:26.544Z,2440.00
2022-10-07T11:52:26.525Z,2732.00
2022-10-07T11:53:26.521Z,2656.00
2022-10-07T11:54:26.540Z,2444.00
2022-10-07T11:55:26.493Z,2540.00
2022-10-07T11:56:26.482Z,2624.00
2022-10-07T11:57:26.480Z,2540.00
2022-10-07T11:58:26.453Z,2384.00
2022-10-07T11:59:26.464Z,2312.00
2022-10-07T12:00:26.434Z,2496.00
2022-10-07T12:01:26.432Z,2452.00
2022-10-07T12:02:26.485Z,2104.00
2022-10-07T12:03:26.442Z,2488.00
2022-10-07T12:04:26.407Z,2572.00
2022-10-07T12:05:26.377Z,2536.00
2022-10-07T12:06:26.386Z,2624.00
2022-10-07T12:07:26.371Z,2652.00
2022-10-07T12:08:26.363Z,2712.00
2022-10-07T12:09:26.377Z,2756.00
2022-10-07T12:10:26.334Z,2820.00
2022-10-07T12:11:26.312Z,2868.00
2022-10-07T12:13:26.844Z,2876.00
2022-10-07T12:14:27.852Z,2772.00
2022-10-07T12:15:27.833Z,2900.00
2022-10-07T12:16:27.848Z,2980.00
2022-10-07T12:17:27.808Z,3108.00
2022-10-07T12:18:27.797Z,3000.00
2022-10-07T12:19:27.804Z,3024.00
2022-10-07T12:20:27.791Z,3064.00
2022-10-07T12:21:27.778Z,3084.00
2022-10-07T12:22:27.785Z,3156.00
2022-10-07T12:23:27.747Z,3120.00
2022-10-07T12:24:27.779Z,2980.00
2022-10-07T12:25:27.718Z,2992.00
2022-10-07T12:26:27.761Z,3092.00
2022-10-07T12:27:27.710Z,3152.00
2022-10-07T12:28:27.802Z,3160.00
2022-10-07T12:29:27.697Z,3208.00
2022-10-07T12:30:27.665Z,3268.00
2022-10-07T12:31:27.711Z,3380.00
2022-10-07T12:32:27.648Z,3428.00
2022-10-07T12:33:27.643Z,3656.00
2022-10-07T12:34:27.675Z,3660.00
2022-10-07T12:35:27.653Z,3632.00
2022-10-07T12:36:27.604Z,3768.00
2022-10-07T12:37:27.595Z,3940.00
2022-10-07T12:38:27.575Z,3992.00
2022-10-07T12:39:27.586Z,3876.00